createdAt,value
2023-05-22T00:02:01.001Z,10.39
2023-05-22T00:05:01.023Z,10.41
2023-05-22T00:08:00.985Z,10.43
2023-05-22T00:11:01.006Z,10.35
2023-05-22T00:14:00.994Z,10.32
2023-05-22T00:17:01.057Z,10.37
2023-05-22T00:20:01.004Z,10.38
2023-05-22T00:23:01.002Z,10.34
2023-05-22T00:26:01.025Z,10.29
2023-05-22T00:29:01.021Z,10.33
2023-05-22T00:32:01.028Z,10.33
2023-05-22T00:35:01.034Z,10.28
2023-05-22T00:38:01.038Z,10.27
2023-05-22T00:41:01.059Z,10.26
2023-05-22T00:44:01.050Z,10.26
2023-05-22T00:47:01.079Z,10.23
2023-05-22T00:50:01.050Z,10.2
2023-05-22T00:53:01.055Z,10.17
2023-05-22T00:56:01.069Z,10.15
2023-05-22T00:59:01.077Z,10.15
2023-05-22T01:02:01.132Z,10.11
2023-05-22T01:05:01.088Z,10.11
2023-05-22T01:08:01.086Z,10.08
2023-05-22T01:11:01.101Z,10.06
2023-05-22T01:14:01.113Z,10.05
2023-05-22T01:17:01.217Z,10.11
2023-05-22T01:20:01.134Z,10.08
2023-05-22T01:23:01.106Z,10.05
2023-05-22T01:26:01.131Z,10.05
2023-05-22T01:29:01.119Z,10.01
2023-05-22T01:32:01.185Z,9.96
2023-05-22T01:35:01.162Z,10.03
2023-05-22T01:38:01.137Z,10.02
2023-05-22T01:41:01.160Z,9.95
2023-05-22T01:44:01.162Z,9.98
2023-05-22T01:47:01.251Z,9.99
2023-05-22T01:50:01.158Z,9.91
2023-05-22T01:53:01.161Z,9.89
2023-05-22T01:56:01.198Z,9.91
2023-05-22T01:59:01.182Z,9.88
2023-05-22T02:02:01.511Z,9.91
2023-05-22T02:05:01.255Z,9.88
2023-05-22T02:08:01.192Z,9.88
2023-05-22T02:11:01.206Z,9.89
2023-05-22T02:14:01.210Z,9.9
2023-05-22T02:17:01.208Z,9.9
2023-05-22T02:20:01.239Z,9.9
2023-05-22T02:23:01.226Z,9.9
2023-05-22T02:26:01.227Z,9.9
2023-05-22T02:29:01.223Z,9.84
2023-05-22T02:32:01.243Z,9.84
2023-05-22T02:35:01.233Z,9.86
2023-05-22T02:38:01.256Z,9.82
2023-05-22T02:41:01.249Z,9.84
2023-05-22T02:44:01.246Z,9.78
2023-05-22T02:47:01.271Z,9.78
2023-05-22T02:50:01.233Z,9.79
2023-05-22T02:53:01.248Z,9.79
2023-05-22T02:56:01.272Z,9.78
2023-05-22T02:59:01.263Z,9.73
2023-05-22T03:02:01.367Z,9.73
2023-05-22T03:05:01.277Z,9.73
2023-05-22T03:08:01.272Z,9.73
2023-05-22T03:11:01.310Z,9.74
2023-05-22T03:14:01.299Z,9.74
2023-05-22T03:17:01.308Z,9.73
2023-05-22T03:20:01.304Z,9.72
2023-05-22T03:23:01.313Z,9.71
2023-05-22T03:26:01.336Z,9.69
2023-05-22T03:29:01.400Z,9.74
2023-05-22T03:32:01.330Z,9.68
2023-05-22T03:35:01.335Z,9.74
2023-05-22T03:38:01.339Z,9.72
2023-05-22T03:41:01.347Z,9.72
2023-05-22T03:44:01.338Z,9.69
2023-05-22T03:47:01.348Z,9.72
2023-05-22T03:50:01.380Z,9.69
2023-05-22T03:53:01.360Z,9.72
2023-05-22T03:56:01.400Z,9.74
2023-05-22T03:59:01.365Z,9.72
2023-05-22T04:02:01.574Z,9.75
2023-05-22T04:05:01.436Z,9.72
2023-05-22T04:08:01.371Z,9.74
2023-05-22T04:11:01.409Z,9.7
2023-05-22T04:14:01.379Z,9.74
2023-05-22T04:17:01.378Z,9.69
2023-05-22T04:20:01.393Z,9.75
2023-05-22T04:23:01.406Z,9.72
2023-05-22T04:26:01.419Z,9.76
2023-05-22T04:29:01.406Z,9.75
2023-05-22T04:32:01.412Z,9.79
2023-05-22T04:35:01.408Z,9.81
2023-05-22T04:38:01.419Z,9.81
2023-05-22T04:41:01.459Z,9.86
2023-05-22T04:44:01.434Z,9.9
2023-05-22T04:47:01.455Z,9.93
2023-05-22T04:50:01.433Z,9.95
2023-05-22T04:53:01.447Z,10.01
2023-05-22T04:56:01.458Z,10.01
2023-05-22T04:59:01.460Z,10.06
2023-05-22T05:02:01.468Z,10.09
2023-05-22T05:05:01.469Z,10.07
2023-05-22T05:08:01.469Z,10.06
2023-05-22T05:11:01.500Z,10.15
2023-05-22T05:14:01.480Z,10.12
2023-05-22T05:17:01.512Z,10.16
2023-05-22T05:20:01.479Z,10.27
2023-05-22T05:23:01.498Z,10.25
2023-05-22T05:26:01.500Z,10.33
2023-05-22T05:29:01.504Z,10.31
2023-05-22T05:32:01.567Z,10.28
2023-05-22T05:35:01.504Z,10.36
2023-05-22T05:38:01.506Z,10.35
2023-05-22T05:41:01.534Z,10.4
2023-05-22T05:44:01.536Z,10.4
2023-05-22T05:47:01.532Z,10.43
2023-05-22T05:50:01.535Z,10.42
2023-05-22T05:53:01.532Z,10.42
2023-05-22T05:56:01.575Z,10.49
2023-05-22T05:59:01.567Z,10.5
2023-05-22T06:02:01.553Z,10.49
2023-05-22T06:05:01.590Z,10.55
2023-05-22T06:08:01.583Z,10.55
2023-05-22T06:11:01.575Z,10.59
2023-05-22T06:14:01.564Z,10.57
2023-05-22T06:17:01.582Z,10.6
2023-05-22T06:20:01.584Z,10.54
2023-05-22T06:23:01.607Z,10.6
2023-05-22T06:26:01.606Z,10.61
2023-05-22T06:29:01.592Z,10.75
2023-05-22T06:32:01.629Z,10.5
2023-05-22T06:35:01.605Z,10.62
2023-05-22T06:38:01.608Z,10.72
2023-05-22T06:41:01.627Z,10.59
2023-05-22T06:44:01.625Z,10.74
2023-05-22T06:47:01.635Z,10.78
2023-05-22T06:50:01.634Z,10.94
2023-05-22T06:53:01.653Z,10.92
2023-05-22T06:56:01.662Z,10.84
2023-05-22T06:59:01.639Z,10.83
2023-05-22T07:02:01.650Z,10.8
2023-05-22T07:05:01.654Z,10.87
2023-05-22T07:08:01.730Z,10.85
2023-05-22T07:11:01.667Z,10.87
2023-05-22T07:14:01.670Z,10.95
2023-05-22T07:17:01.662Z,10.89
2023-05-22T07:20:01.681Z,10.86
2023-05-22T07:23:01.677Z,11.03
2023-05-22T07:26:01.703Z,11.14
2023-05-22T07:29:01.688Z,11.02
2023-05-22T07:32:01.768Z,11.08
2023-05-22T07:35:01.699Z,11.12
2023-05-22T07:38:01.708Z,11.16
2023-05-22T07:41:01.715Z,11.17
2023-05-22T07:44:01.702Z,11.24
2023-05-22T07:47:01.727Z,11.12
2023-05-22T07:50:01.718Z,11.16
2023-05-22T07:53:01.717Z,11.34
2023-05-22T07:56:01.730Z,11.24
2023-05-22T07:59:01.725Z,11.24
2023-05-22T08:02:01.738Z,11.28
2023-05-22T08:05:01.750Z,11.21
2023-05-22T08:08:01.753Z,11.28
2023-05-22T08:11:04.356Z,11.26
2023-05-22T08:14:01.759Z,11.4
2023-05-22T08:17:01.782Z,11.43
2023-05-22T08:20:01.913Z,11.23
2023-05-22T08:23:01.761Z,11.26
2023-05-22T08:26:01.781Z,11.54
2023-05-22T08:29:01.770Z,11.48
2023-05-22T08:32:01.815Z,11.65
2023-05-22T08:35:01.778Z,11.55
2023-05-22T08:38:01.780Z,11.57
2023-05-22T08:41:01.805Z,11.53
2023-05-22T08:44:01.790Z,11.5
2023-05-22T08:47:01.861Z,11.66
2023-05-22T08:50:01.811Z,11.75
2023-05-22T08:53:01.813Z,12.07
2023-05-22T08:56:01.830Z,11.9
2023-05-22T08:59:01.817Z,11.79
2023-05-22T09:02:01.858Z,11.57
2023-05-22T09:05:01.833Z,11.63
2023-05-22T09:08:12.349Z,11.72
2023-05-22T09:11:01.855Z,11.93
2023-05-22T09:14:01.850Z,11.9
2023-05-22T09:17:01.887Z,11.9
2023-05-22T09:20:01.858Z,11.93
2023-05-22T09:23:01.864Z,11.8
2023-05-22T09:26:01.885Z,11.83
2023-05-22T09:29:01.886Z,11.87
2023-05-22T09:32:01.878Z,11.87
2023-05-22T09:35:01.883Z,11.87
2023-05-22T09:38:01.884Z,11.95
2023-05-22T09:41:01.894Z,12.2
2023-05-22T09:44:02.343Z,12.21
2023-05-22T09:47:01.904Z,12.21
2023-05-22T09:50:01.910Z,12.04
2023-05-22T09:53:01.928Z,12.26
2023-05-22T09:56:01.922Z,12.09
2023-05-22T09:59:01.913Z,11.92
2023-05-22T10:02:02.142Z,12.1
2023-05-22T10:05:01.944Z,11.81
2023-05-22T10:08:01.941Z,11.98
2023-05-22T10:11:01.958Z,12.08
2023-05-22T10:14:01.965Z,12.21
2023-05-22T10:17:01.961Z,12.11
2023-05-22T10:20:02.009Z,12.17
2023-05-22T10:23:02.086Z,11.97
2023-05-22T10:26:02.068Z,12.02
2023-05-22T10:29:02.151Z,11.99
2023-05-22T10:32:02.126Z,12.09
2023-05-22T10:35:02.135Z,12.15
2023-05-22T10:38:02.129Z,12.25
2023-05-22T10:41:02.146Z,12.2
2023-05-22T10:44:02.130Z,12.06
2023-05-22T10:47:02.137Z,12.06
2023-05-22T10:50:02.132Z,12.45
2023-05-22T10:53:02.137Z,12.43
2023-05-22T10:56:02.148Z,12.05
2023-05-22T10:59:02.139Z,12.17
2023-05-22T11:02:02.170Z,12.11
2023-05-22T11:05:02.199Z,12.08
2023-05-22T11:08:02.143Z,12.11
2023-05-22T11:11:02.155Z,11.96
2023-05-22T11:14:02.147Z,12.01
2023-05-22T11:17:02.157Z,11.92
2023-05-22T11:20:02.357Z,12.26
2023-05-22T11:23:02.165Z,12.18
2023-05-22T11:26:02.167Z,12.02
2023-05-22T11:29:02.152Z,12.02
2023-05-22T11:32:02.157Z,12.15
2023-05-22T11:35:02.164Z,12.09
2023-05-22T11:38:02.160Z,12.09
2023-05-22T11:41:02.178Z,11.84
2023-05-22T11:44:02.164Z,11.93
2023-05-22T11:47:02.183Z,11.9
2023-05-22T11:50:02.179Z,11.87
2023-05-22T11:53:02.167Z,11.96
2023-05-22T11:56:02.179Z,11.96
2023-05-22T11:59:02.169Z,11.97
2023-05-22T12:02:02.159Z,12.03
2023-05-22T12:05:02.162Z,11.78
2023-05-22T12:08:02.165Z,11.69
2023-05-22T12:11:02.172Z,11.72
2023-05-22T12:14:02.168Z,11.68
2023-05-22T12:17:02.219Z,11.62
2023-05-22T12:20:02.168Z,11.68
2023-05-22T12:23:02.171Z,11.58
2023-05-22T12:26:02.186Z,11.49
2023-05-22T12:29:02.166Z,11.52
2023-05-22T12:32:02.254Z,11.68
2023-05-22T12:35:02.176Z,11.61
2023-05-22T12:38:02.172Z,11.53
2023-05-22T12:41:02.185Z,11.8
2023-05-22T12:44:02.199Z,11.8
2023-05-22T12:47:02.172Z,11.92
2023-05-22T12:50:02.171Z,11.86
2023-05-22T12:53:02.172Z,11.89
2023-05-22T12:56:02.190Z,11.88
2023-05-22T12:59:02.172Z,11.79
2023-05-22T13:02:02.397Z,11.94
2023-05-22T13:05:02.245Z,11.67
2023-05-22T13:08:02.176Z,11.73
2023-05-22T13:11:02.186Z,11.68
2023-05-22T13:14:02.188Z,11.89
2023-05-22T13:17:02.180Z,11.93
2023-05-22T13:20:02.206Z,11.96
2023-05-22T13:23:02.193Z,12.18
2023-05-22T13:26:02.225Z,11.87
2023-05-22T13:29:02.203Z,11.86
2023-05-22T13:32:02.203Z,11.7
2023-05-22T13:35:02.193Z,11.73
2023-05-22T13:38:02.199Z,11.89
2023-05-22T13:41:02.224Z,12.32
2023-05-22T13:44:02.219Z,12.58
2023-05-22T13:47:02.219Z,12.28
2023-05-22T13:50:02.220Z,12.09
2023-05-22T13:53:02.234Z,11.82
2023-05-22T13:56:02.238Z,11.81
2023-05-22T13:59:02.221Z,11.84
2023-05-22T14:02:02.255Z,11.78
2023-05-22T14:05:02.242Z,11.53
2023-05-22T14:08:02.244Z,11.68
2023-05-22T14:11:02.251Z,11.5
2023-05-22T14:14:02.236Z,11.32
2023-05-22T14:17:02.329Z,11.53
2023-05-22T14:20:02.244Z,11.38
2023-05-22T14:23:02.261Z,11.35
2023-05-22T14:26:02.272Z,11.32
2023-05-22T14:29:02.270Z,11.37
2023-05-22T14:32:02.270Z,11.46
2023-05-22T14:35:02.284Z,11.31
2023-05-22T14:38:02.278Z,11.23
2023-05-22T14:41:02.345Z,11.11
2023-05-22T14:44:02.290Z,11.34
2023-05-22T14:47:02.312Z,11.31
2023-05-22T14:50:14.577Z,11.45
2023-05-22T14:53:02.312Z,11.45
2023-05-22T14:56:02.324Z,11.4
2023-05-22T14:59:02.354Z,11.54
2023-05-22T15:02:02.370Z,11.39
2023-05-22T15:05:02.347Z,11.5
2023-05-22T15:08:02.368Z,11.49
2023-05-22T15:11:02.385Z,11.49
2023-05-22T15:14:02.384Z,11.35
2023-05-22T15:17:02.372Z,11.42
2023-05-22T15:20:02.410Z,11.42
2023-05-22T15:23:02.392Z,11.5
2023-05-22T15:26:02.403Z,11.59
2023-05-22T15:29:02.398Z,11.3
2023-05-22T15:32:02.438Z,11.23
2023-05-22T15:35:02.402Z,11.39
2023-05-22T15:38:02.416Z,11.58
2023-05-22T15:41:02.428Z,11.51
2023-05-22T15:44:02.409Z,11.6
2023-05-22T15:47:02.427Z,11.55
2023-05-22T15:50:02.489Z,11.54
2023-05-22T15:53:02.438Z,11.47
2023-05-22T15:56:02.507Z,11.41
2023-05-22T15:59:02.449Z,11.38
2023-05-22T16:02:02.456Z,11.38
2023-05-22T16:05:02.478Z,11.37
2023-05-22T16:08:02.468Z,11.34
2023-05-22T16:11:02.482Z,11.32
2023-05-22T16:14:02.472Z,11.19
2023-05-22T16:17:02.494Z,11.19
2023-05-22T16:20:02.563Z,11.29
2023-05-22T16:23:02.490Z,11.3
2023-05-22T16:26:02.510Z,11.33
2023-05-22T16:29:02.508Z,11.32
2023-05-22T16:32:02.629Z,11.39
2023-05-22T16:35:02.512Z,11.43
2023-05-22T16:38:02.513Z,11.42
2023-05-22T16:41:02.530Z,11.43
2023-05-22T16:44:02.522Z,11.42
2023-05-22T16:47:02.603Z,11.43
2023-05-22T16:50:02.531Z,11.45
2023-05-22T16:53:02.540Z,11.41
2023-05-22T16:56:02.550Z,11.34
2023-05-22T16:59:02.578Z,11.35
2023-05-22T17:02:02.540Z,11.34
2023-05-22T17:05:02.568Z,11.37
2023-05-22T17:08:02.558Z,11.38
2023-05-22T17:11:02.585Z,11.42
2023-05-22T17:14:02.583Z,11.78
2023-05-22T17:17:02.593Z,11.81
2023-05-22T17:20:02.643Z,11.86
2023-05-22T17:23:02.606Z,11.98
2023-05-22T17:26:02.616Z,11.92
2023-05-22T17:29:02.609Z,11.97
2023-05-22T17:32:02.620Z,11.9
2023-05-22T17:35:02.636Z,11.88
2023-05-22T17:38:02.623Z,11.91
2023-05-22T17:41:02.639Z,11.93
2023-05-22T17:44:02.623Z,11.98
2023-05-22T17:47:02.633Z,12.09
2023-05-22T17:50:02.638Z,12.18
2023-05-22T17:53:02.646Z,12.13
2023-05-22T17:56:02.659Z,12.08
2023-05-22T17:59:02.656Z,11.97
2023-05-22T18:02:02.687Z,11.97
2023-05-22T18:05:02.663Z,11.97
2023-05-22T18:08:02.672Z,11.99
2023-05-22T18:11:02.673Z,11.98
2023-05-22T18:14:02.679Z,11.92
2023-05-22T18:17:02.948Z,11.92
2023-05-22T18:20:02.685Z,11.91
2023-05-22T18:23:02.692Z,11.91
2023-05-22T18:26:02.709Z,11.86
2023-05-22T18:29:02.713Z,11.86
2023-05-22T18:32:02.737Z,11.83
2023-05-22T18:35:02.724Z,11.85
2023-05-22T18:38:02.717Z,11.77
2023-05-22T18:41:02.746Z,11.83
2023-05-22T18:44:02.728Z,11.86
2023-05-22T18:47:02.755Z,11.89
2023-05-22T18:50:02.735Z,11.92
2023-05-22T18:53:02.756Z,11.94
2023-05-22T18:56:02.759Z,11.91
2023-05-22T18:59:02.753Z,11.95
2023-05-22T19:02:02.754Z,11.98
2023-05-22T19:05:02.871Z,12.08
2023-05-22T19:08:02.770Z,11.99
2023-05-22T19:11:02.788Z,12.16
2023-05-22T19:14:02.791Z,12.66
2023-05-22T19:17:02.860Z,12.71
2023-05-22T19:20:02.793Z,12.75
2023-05-22T19:23:02.790Z,12.76
2023-05-22T19:26:02.815Z,13.34
2023-05-22T19:29:02.864Z,13.21
2023-05-22T19:32:02.801Z,13.54
2023-05-22T19:35:02.824Z,13.52
2023-05-22T19:38:02.829Z,13.57
2023-05-22T19:41:02.855Z,13.54
2023-05-22T19:44:02.834Z,13.33
2023-05-22T19:47:02.839Z,13.43
2023-05-22T19:50:02.863Z,13.47
2023-05-22T19:53:02.853Z,13.42
2023-05-22T19:56:02.908Z,13.53
2023-05-22T19:59:02.868Z,13.46
2023-05-22T20:02:02.899Z,13.38
2023-05-22T20:05:02.876Z,13.45
2023-05-22T20:08:02.889Z,13.34
2023-05-22T20:11:02.895Z,13.49
2023-05-22T20:14:02.885Z,13.49
2023-05-22T20:17:02.891Z,13.44
2023-05-22T20:20:02.890Z,13.48
2023-05-22T20:23:02.897Z,13.43
2023-05-22T20:26:02.914Z,13.42
2023-05-22T20:29:02.901Z,13.36
2023-05-22T20:32:02.927Z,13.27
2023-05-22T20:35:02.918Z,13.31
2023-05-22T20:38:02.979Z,13.3
2023-05-22T20:41:02.951Z,13.34
2023-05-22T20:44:02.924Z,13.26
2023-05-22T20:47:02.932Z,13.17
2023-05-22T20:50:02.937Z,13.21
2023-05-22T20:53:02.935Z,13.25
2023-05-22T20:56:02.951Z,13.24
2023-05-22T20:59:02.952Z,13.13
2023-05-22T21:02:02.945Z,13.17
2023-05-22T21:05:02.959Z,13.17
2023-05-22T21:08:02.955Z,13.18
2023-05-22T21:11:02.984Z,13.18
2023-05-22T21:14:02.999Z,13.18
2023-05-22T21:17:02.982Z,13.18
2023-05-22T21:20:02.972Z,13.18
2023-05-22T21:23:02.984Z,13.17
2023-05-22T21:26:02.992Z,13.18
2023-05-22T21:29:02.990Z,13.21
2023-05-22T21:32:02.992Z,13.18
2023-05-22T21:35:02.991Z,13.2
2023-05-22T21:38:03.001Z,13.21
2023-05-22T21:41:03.014Z,13.21
2023-05-22T21:44:03.004Z,13.21
2023-05-22T21:47:03.070Z,13.14
2023-05-22T21:50:03.038Z,13.14
2023-05-22T21:53:03.028Z,13.16
2023-05-22T21:56:03.044Z,13.16
2023-05-22T21:59:03.039Z,13.16
2023-05-22T22:02:03.104Z,13.16
2023-05-22T22:05:03.044Z,13.16
2023-05-22T22:08:03.046Z,13.17
2023-05-22T22:11:03.062Z,13.17
2023-05-22T22:14:03.090Z,13.18
2023-05-22T22:17:03.072Z,13.18
2023-05-22T22:20:03.090Z,13.2
2023-05-22T22:23:03.074Z,13.2
2023-05-22T22:26:03.258Z,13.2
2023-05-22T22:29:03.084Z,13.21
2023-05-22T22:32:03.126Z,13.21
2023-05-22T22:35:03.104Z,13.13
2023-05-22T22:38:03.119Z,13.14
2023-05-22T22:41:03.108Z,13.22
2023-05-22T22:44:03.117Z,13.22
2023-05-22T22:47:03.122Z,13.24
2023-05-22T22:50:03.127Z,13.24
2023-05-22T22:53:03.132Z,13.24
2023-05-22T22:56:03.140Z,13.24
2023-05-22T22:59:03.142Z,13.24
2023-05-22T23:02:03.151Z,13.25
2023-05-22T23:05:03.215Z,13.25
2023-05-22T23:08:03.156Z,13.17
2023-05-22T23:11:03.166Z,13.17
2023-05-22T23:14:03.164Z,13.17
2023-05-22T23:17:03.168Z,13.19
2023-05-22T23:20:03.174Z,13.2
2023-05-22T23:23:03.185Z,13.2
2023-05-22T23:26:03.184Z,13.21
2023-05-22T23:29:03.190Z,13.13
2023-05-22T23:32:03.209Z,13.15
2023-05-22T23:35:03.192Z,13.15
2023-05-22T23:38:03.201Z,13.16
2023-05-22T23:41:03.203Z,13.16
2023-05-22T23:44:03.191Z,13.16
2023-05-22T23:47:03.244Z,13.17
2023-05-22T23:50:03.213Z,13.17
2023-05-22T23:53:03.222Z,13.17
2023-05-22T23:56:03.452Z,13.19
2023-05-22T23:59:03.231Z,13.19
